createdAt,value
2017-08-18T00:02:18.259Z,20.54
2017-08-18T00:04:45.840Z,20.47
2017-08-18T00:07:13.465Z,20.37
2017-08-18T00:09:41.118Z,20.33
2017-08-18T00:12:08.738Z,20.11
2017-08-18T00:14:36.364Z,20.00
2017-08-18T00:17:03.990Z,19.97
2017-08-18T00:19:31.594Z,19.97
2017-08-18T00:21:59.243Z,19.93
2017-08-18T00:24:26.862Z,19.93
2017-08-18T00:26:54.458Z,19.92
2017-08-18T00:29:22.195Z,19.85
2017-08-18T00:31:49.792Z,19.79
2017-08-18T00:34:17.423Z,19.82
2017-08-18T00:36:45.010Z,19.90
2017-08-18T00:39:12.627Z,19.89
2017-08-18T00:41:40.225Z,19.83
2017-08-18T00:44:07.847Z,19.88
2017-08-18T00:46:35.440Z,19.87
2017-08-18T00:49:03.190Z,19.80
2017-08-18T00:51:30.770Z,19.77
2017-08-18T00:53:58.366Z,19.77
2017-08-18T00:56:26.002Z,19.84
2017-08-18T00:58:53.607Z,19.92
2017-08-18T01:01:21.230Z,19.99
2017-08-18T01:03:48.843Z,20.05
2017-08-18T01:06:16.463Z,20.05
2017-08-18T01:08:44.063Z,20.07
2017-08-18T01:11:11.698Z,20.05
2017-08-18T01:13:39.293Z,20.04
2017-08-18T01:16:07.022Z,20.02
2017-08-18T01:18:34.630Z,20.07
2017-08-18T01:21:02.256Z,20.08
2017-08-18T01:23:29.838Z,20.04
2017-08-18T01:25:57.467Z,20.05
2017-08-18T01:28:25.062Z,19.98
2017-08-18T01:30:52.683Z,19.85
2017-08-18T01:33:20.290Z,19.74
2017-08-18T01:35:47.891Z,19.72
2017-08-18T01:38:15.520Z,19.80
2017-08-18T01:40:43.113Z,19.87
2017-08-18T01:43:10.758Z,19.91
2017-08-18T01:45:38.350Z,19.94
2017-08-18T01:48:05.970Z,19.91
2017-08-18T01:50:33.571Z,19.89
2017-08-18T01:53:01.184Z,19.90
2017-08-18T01:55:28.766Z,19.90
2017-08-18T01:57:56.470Z,19.94
2017-08-18T02:00:24.110Z,19.96
2017-08-18T02:02:51.742Z,19.96
2017-08-18T02:05:19.351Z,19.97
2017-08-18T02:07:47.034Z,19.93
2017-08-18T02:10:14.671Z,19.83
2017-08-18T02:12:42.306Z,19.77
2017-08-18T02:15:09.906Z,19.71
2017-08-18T02:17:37.566Z,19.77
2017-08-18T02:20:05.163Z,19.80
2017-08-18T02:22:32.750Z,19.84
2017-08-18T02:25:00.402Z,19.88
2017-08-18T02:27:27.989Z,19.91
2017-08-18T02:29:55.623Z,19.91
2017-08-18T02:32:23.215Z,19.92
2017-08-18T02:34:50.850Z,19.97
2017-08-18T02:37:18.461Z,19.98
2017-08-18T02:39:46.087Z,20.05
2017-08-18T02:42:13.682Z,20.06
2017-08-18T02:44:41.326Z,20.01
2017-08-18T02:47:08.921Z,20.00
2017-08-18T02:49:36.542Z,19.98
2017-08-18T02:52:04.170Z,19.94
2017-08-18T02:54:31.772Z,19.99
2017-08-18T02:56:59.396Z,19.91
2017-08-18T02:59:26.991Z,19.95
2017-08-18T03:01:54.617Z,19.99
2017-08-18T03:04:22.219Z,19.93
2017-08-18T03:06:49.854Z,19.95
2017-08-18T03:09:17.440Z,20.00
2017-08-18T03:11:45.075Z,19.95
2017-08-18T03:14:12.659Z,19.89
2017-08-18T03:16:40.270Z,19.81
2017-08-18T03:19:07.949Z,19.76
2017-08-18T03:21:35.594Z,19.69
2017-08-18T03:24:03.190Z,19.70
2017-08-18T03:26:30.863Z,19.72
2017-08-18T03:28:58.495Z,19.65
2017-08-18T03:31:26.082Z,19.60
2017-08-18T03:33:53.695Z,19.59
2017-08-18T03:36:21.334Z,19.57
2017-08-18T03:38:48.946Z,19.62
2017-08-18T03:41:16.531Z,19.67
2017-08-18T03:43:44.228Z,19.75
2017-08-18T03:46:11.880Z,19.73
2017-08-18T03:48:39.510Z,19.73
2017-08-18T03:51:07.103Z,19.74
2017-08-18T03:53:34.783Z,19.73
2017-08-18T03:56:02.387Z,19.78
2017-08-18T03:58:29.998Z,19.77
2017-08-18T04:00:57.594Z,19.74
2017-08-18T04:03:25.221Z,19.64
2017-08-18T04:05:52.826Z,19.56
2017-08-18T04:08:20.450Z,19.54
2017-08-18T04:10:48.059Z,19.54
2017-08-18T04:13:15.690Z,19.52
2017-08-18T04:15:43.301Z,19.41
2017-08-18T04:18:10.938Z,19.35
2017-08-18T04:20:38.551Z,19.32
2017-08-18T04:23:06.139Z,19.33
2017-08-18T04:25:33.823Z,19.34
2017-08-18T04:28:01.423Z,19.31
2017-08-18T04:30:29.071Z,19.29
2017-08-18T04:32:56.667Z,19.10
2017-08-18T04:35:24.357Z,19.01
2017-08-18T04:37:51.956Z,19.00
2017-08-18T04:40:19.579Z,19.05
2017-08-18T04:42:47.182Z,19.10
2017-08-18T04:45:14.808Z,19.15
2017-08-18T04:47:42.414Z,19.13
2017-08-18T04:50:10.028Z,19.07
2017-08-18T04:52:37.619Z,18.97
2017-08-18T04:55:05.276Z,18.93
2017-08-18T04:57:32.874Z,18.87
2017-08-18T05:00:00.495Z,18.85
2017-08-18T05:02:28.115Z,18.81
2017-08-18T05:04:55.703Z,18.83
2017-08-18T05:07:23.346Z,18.85
2017-08-18T05:09:50.987Z,18.87
2017-08-18T05:12:18.600Z,18.89
2017-08-18T05:14:46.196Z,18.97
2017-08-18T05:17:13.834Z,19.03
2017-08-18T05:19:41.444Z,18.96
2017-08-18T05:22:09.032Z,18.89
2017-08-18T05:24:36.677Z,18.69
2017-08-18T05:27:04.299Z,18.68
2017-08-18T05:29:31.949Z,18.70
2017-08-18T05:31:59.549Z,18.68
2017-08-18T05:34:27.170Z,18.76
2017-08-18T05:36:54.808Z,18.88
2017-08-18T05:39:22.443Z,18.91
2017-08-18T05:41:50.052Z,18.96
2017-08-18T05:44:17.706Z,18.94
2017-08-18T05:46:45.306Z,18.90
2017-08-18T05:49:12.999Z,18.97
2017-08-18T05:51:40.593Z,19.12
2017-08-18T05:54:08.219Z,19.14
2017-08-18T05:56:35.835Z,19.13
2017-08-18T05:59:03.446Z,19.13
2017-08-18T06:01:31.076Z,19.11
2017-08-18T06:03:58.753Z,19.15
2017-08-18T06:06:26.367Z,19.21
2017-08-18T06:08:54.490Z,19.22
2017-08-18T06:11:22.202Z,19.29
2017-08-18T06:13:49.802Z,19.48
2017-08-18T06:16:17.434Z,19.55
2017-08-18T06:18:45.056Z,19.60
2017-08-18T06:21:12.683Z,19.60
2017-08-18T06:23:40.283Z,19.54
2017-08-18T06:26:07.901Z,19.58
2017-08-18T06:28:35.500Z,19.63
2017-08-18T06:31:03.117Z,19.65
2017-08-18T06:33:30.706Z,19.57
2017-08-18T06:35:58.343Z,19.59
2017-08-18T06:38:25.940Z,19.60
2017-08-18T06:40:53.578Z,19.57
2017-08-18T06:43:21.175Z,19.56
2017-08-18T06:45:48.883Z,19.49
2017-08-18T06:48:16.470Z,19.41
2017-08-18T06:50:44.102Z,19.34
2017-08-18T06:53:11.716Z,19.22
2017-08-18T06:55:39.346Z,19.23
2017-08-18T06:58:06.942Z,19.20
2017-08-18T07:00:34.588Z,19.14
2017-08-18T07:03:02.180Z,19.06
2017-08-18T07:05:29.778Z,19.02
2017-08-18T07:07:57.405Z,19.05
2017-08-18T07:10:25.040Z,19.03
2017-08-18T07:12:52.666Z,19.03
2017-08-18T07:15:20.303Z,18.94
2017-08-18T07:17:47.887Z,18.91
2017-08-18T07:20:15.482Z,18.87
2017-08-18T07:22:43.115Z,18.88
2017-08-18T07:25:10.699Z,18.91
2017-08-18T07:27:38.330Z,18.87
2017-08-18T07:30:05.934Z,18.88
2017-08-18T07:32:33.551Z,18.91
2017-08-18T07:35:01.167Z,18.93
2017-08-18T07:37:28.795Z,18.92
2017-08-18T07:39:56.399Z,18.96
2017-08-18T07:42:24.030Z,18.89
2017-08-18T07:44:51.635Z,18.91
2017-08-18T07:47:19.289Z,18.97
2017-08-18T07:49:46.878Z,18.94
2017-08-18T07:52:14.503Z,18.94
2017-08-18T07:54:42.150Z,18.93
2017-08-18T07:57:09.808Z,18.93
2017-08-18T07:59:37.411Z,18.86
2017-08-18T08:02:05.066Z,18.85
2017-08-18T08:04:32.679Z,18.84
2017-08-18T08:07:00.352Z,18.91
2017-08-18T08:09:28.067Z,18.94
2017-08-18T08:11:55.690Z,18.95
2017-08-18T08:14:23.286Z,19.03
2017-08-18T08:16:50.937Z,19.09
2017-08-18T08:19:18.545Z,19.21
2017-08-18T08:21:46.222Z,19.36
2017-08-18T08:24:13.846Z,19.44
2017-08-18T08:26:41.435Z,19.47
2017-08-18T08:29:09.066Z,19.42
2017-08-18T08:31:36.708Z,19.33
2017-08-18T08:34:04.322Z,19.29
2017-08-18T08:36:31.941Z,19.30
2017-08-18T08:38:59.590Z,19.21
2017-08-18T08:41:27.281Z,19.17
2017-08-18T08:43:54.916Z,19.18
2017-08-18T08:46:22.538Z,19.25
2017-08-18T08:48:50.158Z,19.20
2017-08-18T08:51:17.762Z,19.21
2017-08-18T08:53:45.425Z,19.28
2017-08-18T08:56:13.069Z,19.35
2017-08-18T08:58:40.715Z,19.31
2017-08-18T09:01:08.358Z,19.37
2017-08-18T09:03:35.984Z,19.60
2017-08-18T09:06:03.572Z,19.65
2017-08-18T09:08:31.194Z,19.68
2017-08-18T09:10:58.798Z,19.65
2017-08-18T09:13:26.410Z,19.73
2017-08-18T09:15:53.995Z,19.77
2017-08-18T09:18:21.636Z,19.82
2017-08-18T09:20:49.235Z,19.97
2017-08-18T09:23:16.866Z,20.04
2017-08-18T09:25:44.462Z,20.01
2017-08-18T09:28:12.079Z,20.05
2017-08-18T09:30:39.742Z,20.02
2017-08-18T09:33:07.342Z,19.97
2017-08-18T09:35:34.990Z,19.84
2017-08-18T09:38:02.657Z,19.82
2017-08-18T09:40:30.312Z,19.76
2017-08-18T09:42:57.918Z,19.82
2017-08-18T09:45:25.559Z,19.81
2017-08-18T09:48:04.659Z,19.74
2017-08-18T09:50:43.914Z,19.74
2017-08-18T09:53:23.142Z,19.81
2017-08-18T09:56:02.427Z,19.91
2017-08-18T09:58:41.744Z,19.93
2017-08-18T10:01:09.338Z,19.91
2017-08-18T10:03:36.938Z,19.97
2017-08-18T10:06:04.574Z,19.97
2017-08-18T10:08:32.278Z,19.81
2017-08-18T10:10:59.886Z,19.82
2017-08-18T10:13:27.496Z,19.84
2017-08-18T10:15:55.155Z,19.89
2017-08-18T10:18:22.815Z,19.98
2017-08-18T10:20:50.442Z,20.14
2017-08-18T10:23:18.054Z,20.23
2017-08-18T10:25:45.738Z,20.30
2017-08-18T10:28:13.337Z,20.37
2017-08-18T10:30:41.022Z,20.39
2017-08-18T10:33:08.679Z,20.42
2017-08-18T10:35:36.321Z,20.47
2017-08-18T10:38:03.916Z,20.45
2017-08-18T10:40:31.541Z,20.47
2017-08-18T10:42:59.142Z,20.46
2017-08-18T10:45:26.878Z,20.44
2017-08-18T10:47:54.476Z,20.47
2017-08-18T10:50:22.114Z,20.44
2017-08-18T10:52:49.703Z,20.47
2017-08-18T10:55:17.310Z,20.45
2017-08-18T10:57:44.943Z,20.50
2017-08-18T11:00:12.538Z,20.59
2017-08-18T11:02:40.149Z,20.65
2017-08-18T11:05:07.761Z,20.79
2017-08-18T11:07:35.387Z,20.81
2017-08-18T11:10:02.977Z,20.85
2017-08-18T11:12:30.631Z,20.87
2017-08-18T11:14:58.183Z,20.89
2017-08-18T11:17:25.930Z,20.89
2017-08-18T11:19:53.537Z,20.89
2017-08-18T11:22:21.153Z,20.85
2017-08-18T11:24:48.752Z,20.85
2017-08-18T11:27:16.390Z,20.84
2017-08-18T11:29:43.986Z,20.88
2017-08-18T11:32:11.606Z,20.87
2017-08-18T11:34:39.202Z,20.87
2017-08-18T11:37:06.838Z,20.85
2017-08-18T11:39:34.435Z,20.81
2017-08-18T11:42:02.175Z,20.81
2017-08-18T11:44:29.828Z,20.76
2017-08-18T11:46:57.462Z,20.73
2017-08-18T11:49:25.062Z,20.74
2017-08-18T11:51:52.698Z,20.75
2017-08-18T11:54:20.306Z,20.83
2017-08-18T11:56:47.926Z,20.84
2017-08-18T11:59:15.514Z,20.88
2017-08-18T12:01:43.183Z,20.88
2017-08-18T12:04:10.774Z,20.81
2017-08-18T12:06:38.412Z,20.84
2017-08-18T12:09:06.006Z,20.81
2017-08-18T12:11:33.634Z,20.80
2017-08-18T12:14:01.234Z,20.78
2017-08-18T12:16:28.880Z,20.73
2017-08-18T12:18:56.462Z,20.66
2017-08-18T12:21:24.147Z,20.66
2017-08-18T12:23:51.771Z,20.66
2017-08-18T12:26:19.359Z,20.67
2017-08-18T12:28:46.988Z,20.54
2017-08-18T12:31:14.590Z,20.51
2017-08-18T12:33:42.221Z,20.42
2017-08-18T12:36:09.810Z,20.34
2017-08-18T12:38:37.452Z,20.40
2017-08-18T12:41:05.052Z,20.50
2017-08-18T12:43:32.739Z,20.52
2017-08-18T12:46:00.334Z,20.59
2017-08-18T12:48:27.977Z,20.74
2017-08-18T12:50:55.565Z,20.83
2017-08-18T12:53:23.198Z,20.88
2017-08-18T12:55:50.781Z,20.94
2017-08-18T12:58:18.394Z,20.90
2017-08-18T13:00:46.002Z,20.93
2017-08-18T13:03:13.640Z,21.01
2017-08-18T13:05:41.239Z,21.13
2017-08-18T13:08:08.874Z,21.19
2017-08-18T13:10:36.491Z,21.25
2017-08-18T13:13:04.147Z,21.20
2017-08-18T13:15:31.755Z,21.21
2017-08-18T13:18:01.114Z,21.15
2017-08-18T13:20:28.710Z,21.13
2017-08-18T13:22:56.334Z,21.15
2017-08-18T13:25:23.931Z,21.22
2017-08-18T13:27:51.562Z,21.29
2017-08-18T13:30:19.171Z,21.28
2017-08-18T13:32:46.791Z,21.19
2017-08-18T13:35:14.388Z,21.13
2017-08-18T13:37:42.014Z,21.08
2017-08-18T13:40:09.649Z,21.07
2017-08-18T13:42:37.274Z,21.05
2017-08-18T13:45:04.865Z,20.99
2017-08-18T13:47:32.510Z,21.01
2017-08-18T13:50:00.122Z,21.04
2017-08-18T13:52:27.780Z,20.96
2017-08-18T13:54:55.408Z,20.92
2017-08-18T13:57:22.995Z,20.85
2017-08-18T13:59:50.618Z,20.78
2017-08-18T14:02:18.234Z,20.75
2017-08-18T14:04:45.846Z,20.68
2017-08-18T14:07:13.438Z,20.70
2017-08-18T14:09:41.031Z,20.73
2017-08-18T14:12:08.618Z,20.68
2017-08-18T14:14:36.230Z,20.64
2017-08-18T14:17:03.830Z,20.55
2017-08-18T14:19:31.468Z,20.50
2017-08-18T14:21:59.118Z,20.44
2017-08-18T14:24:26.734Z,20.44
2017-08-18T14:26:59.902Z,20.42
2017-08-18T14:29:27.541Z,20.38
2017-08-18T14:31:55.231Z,20.37
2017-08-18T14:34:22.874Z,20.29
2017-08-18T14:36:50.500Z,20.26
2017-08-18T14:39:18.097Z,20.19
2017-08-18T14:41:45.732Z,20.15
2017-08-18T14:44:13.368Z,20.15
2017-08-18T14:46:40.959Z,20.14
2017-08-18T14:49:08.562Z,20.13
2017-08-18T14:51:36.183Z,20.14
2017-08-18T14:54:03.779Z,20.12
2017-08-18T14:56:31.411Z,20.13
2017-08-18T14:58:59.043Z,20.10
2017-08-18T15:01:26.672Z,20.13
2017-08-18T15:03:54.291Z,20.20
2017-08-18T15:06:21.910Z,20.17
2017-08-18T15:08:49.504Z,20.21
2017-08-18T15:11:17.171Z,20.15
2017-08-18T15:13:44.795Z,20.11
2017-08-18T15:16:12.435Z,20.14
2017-08-18T15:18:40.026Z,20.16
2017-08-18T15:21:07.662Z,20.12
2017-08-18T15:23:35.302Z,20.16
2017-08-18T15:26:02.919Z,20.22
2017-08-18T15:28:30.538Z,20.18
2017-08-18T15:30:58.145Z,20.18
2017-08-18T15:33:25.780Z,20.23
2017-08-18T15:35:53.378Z,20.20
2017-08-18T15:38:20.991Z,20.16
2017-08-18T15:40:48.592Z,20.18
2017-08-18T15:43:16.223Z,20.21
2017-08-18T15:45:43.858Z,20.25
2017-08-18T15:48:11.494Z,20.23
2017-08-18T15:50:39.109Z,20.21
2017-08-18T15:53:06.758Z,20.23
2017-08-18T15:55:34.370Z,20.18
2017-08-18T15:58:02.002Z,20.26
2017-08-18T16:00:29.658Z,20.31
2017-08-18T16:02:57.316Z,20.26
2017-08-18T16:05:24.919Z,20.27
2017-08-18T16:07:52.566Z,20.26
2017-08-18T16:10:20.192Z,20.30
2017-08-18T16:12:47.833Z,20.26
2017-08-18T16:15:15.434Z,20.31
2017-08-18T16:17:43.031Z,20.23
2017-08-18T16:20:10.655Z,20.21
2017-08-18T16:22:38.351Z,20.21
2017-08-18T16:25:05.990Z,20.16
2017-08-18T16:27:33.605Z,20.12
2017-08-18T16:30:01.237Z,20.09
2017-08-18T16:32:28.849Z,20.06
2017-08-18T16:34:56.491Z,20.08
2017-08-18T16:37:24.088Z,20.05
2017-08-18T16:39:51.713Z,20.02
2017-08-18T16:42:19.319Z,20.07
2017-08-18T16:44:46.974Z,20.08
2017-08-18T16:47:14.599Z,20.08
2017-08-18T16:49:42.241Z,20.07
2017-08-18T16:52:09.839Z,20.10
2017-08-18T16:54:37.503Z,20.10
2017-08-18T16:57:05.099Z,20.10
2017-08-18T16:59:32.699Z,20.08
2017-08-18T17:02:00.337Z,20.05
2017-08-18T17:04:27.976Z,20.01
2017-08-18T17:06:55.597Z,20.02
2017-08-18T17:09:23.207Z,20.02
2017-08-18T17:11:50.847Z,19.99
2017-08-18T17:14:18.469Z,19.97
2017-08-18T17:16:46.088Z,19.96
2017-08-18T17:19:13.695Z,19.95
2017-08-18T17:21:41.326Z,20.00
2017-08-18T17:24:08.926Z,20.03
2017-08-18T17:26:36.525Z,20.03
2017-08-18T17:29:04.152Z,20.03
2017-08-18T17:31:31.763Z,19.99
2017-08-18T17:33:59.413Z,19.95
2017-08-18T17:36:27.056Z,19.91
2017-08-18T17:38:54.701Z,19.91
2017-08-18T17:41:22.291Z,19.90
2017-08-18T17:43:49.913Z,19.86
2017-08-18T17:46:17.515Z,19.86
2017-08-18T17:48:45.178Z,19.89
2017-08-18T17:51:12.764Z,19.97
2017-08-18T17:53:40.358Z,19.94
2017-08-18T17:56:07.987Z,19.96
2017-08-18T17:58:35.622Z,19.97
2017-08-18T18:01:03.223Z,19.92
2017-08-18T18:03:30.855Z,19.88
2017-08-18T18:05:58.505Z,19.85
2017-08-18T18:08:26.096Z,19.84
2017-08-18T18:10:53.718Z,19.82
2017-08-18T18:13:21.366Z,19.81
2017-08-18T18:15:49.074Z,19.80
2017-08-18T18:18:16.681Z,19.84
2017-08-18T18:20:44.319Z,19.74
2017-08-18T18:23:11.944Z,19.73
2017-08-18T18:25:39.567Z,19.69
2017-08-18T18:28:07.163Z,19.69
2017-08-18T18:30:34.811Z,19.68
2017-08-18T18:33:02.411Z,19.64
2017-08-18T18:35:30.079Z,19.57
2017-08-18T18:37:57.695Z,19.58
2017-08-18T18:40:25.342Z,19.56
2017-08-18T18:42:52.947Z,19.53
2017-08-18T18:45:20.582Z,19.51
2017-08-18T18:47:48.207Z,19.46
2017-08-18T18:50:15.855Z,19.41
2017-08-18T18:52:43.459Z,19.41
2017-08-18T18:55:11.204Z,19.43
2017-08-18T18:57:38.815Z,19.42
2017-08-18T19:00:06.426Z,19.41
2017-08-18T19:02:34.077Z,19.39
2017-08-18T19:05:01.721Z,19.39
2017-08-18T19:07:29.420Z,19.45
2017-08-18T19:09:57.007Z,19.50
2017-08-18T19:12:24.973Z,19.53
2017-08-18T19:14:52.571Z,19.50
2017-08-18T19:17:20.170Z,19.48
2017-08-18T19:19:47.875Z,19.43
2017-08-18T19:22:16.234Z,19.46
2017-08-18T19:24:43.954Z,19.47
2017-08-18T19:27:11.559Z,19.47
2017-08-18T19:29:39.194Z,19.44
2017-08-18T19:32:06.805Z,19.38
2017-08-18T19:34:34.425Z,19.30
2017-08-18T19:37:02.043Z,19.27
2017-08-18T19:39:29.947Z,19.21
2017-08-18T19:41:57.558Z,19.19
2017-08-18T19:44:25.176Z,19.18
2017-08-18T19:46:52.844Z,19.07
2017-08-18T19:49:20.518Z,19.03
2017-08-18T19:51:48.166Z,18.77
2017-08-18T19:54:15.783Z,18.24
2017-08-18T19:56:43.411Z,18.10
2017-08-18T19:59:11.027Z,17.97
2017-08-18T20:01:38.786Z,17.91
2017-08-18T20:04:06.389Z,17.78
2017-08-18T20:06:33.999Z,17.74
2017-08-18T20:09:01.658Z,17.72
2017-08-18T20:11:29.266Z,17.60
2017-08-18T20:13:56.915Z,17.59
2017-08-18T20:16:24.502Z,17.62
2017-08-18T20:18:52.147Z,17.54
2017-08-18T20:21:19.762Z,17.47
2017-08-18T20:23:47.402Z,17.52
2017-08-18T20:26:15.035Z,17.57
2017-08-18T20:28:42.814Z,17.59
2017-08-18T20:31:10.426Z,17.58
2017-08-18T20:33:38.067Z,17.65
2017-08-18T20:36:05.716Z,17.63
2017-08-18T20:38:33.311Z,17.59
2017-08-18T20:41:00.968Z,17.59
2017-08-18T20:43:28.576Z,17.60
2017-08-18T20:45:56.332Z,17.63
2017-08-18T20:48:23.963Z,17.67
2017-08-18T20:50:51.627Z,17.69
2017-08-18T20:53:19.234Z,17.70
2017-08-18T20:55:47.161Z,17.66
2017-08-18T20:58:14.764Z,17.56
2017-08-18T21:00:42.377Z,17.50
2017-08-18T21:03:10.043Z,17.47
2017-08-18T21:05:37.661Z,17.47
2017-08-18T21:08:05.298Z,17.44
2017-08-18T21:10:32.939Z,17.44
2017-08-18T21:13:00.575Z,17.46
2017-08-18T21:15:28.189Z,17.45
2017-08-18T21:17:55.820Z,17.43
2017-08-18T21:20:23.411Z,17.37
2017-08-18T21:22:51.203Z,17.21
2017-08-18T21:25:18.851Z,17.13
2017-08-18T21:27:46.458Z,17.16
2017-08-18T21:30:14.209Z,17.12
2017-08-18T21:32:41.815Z,17.07
2017-08-18T21:35:09.478Z,17.04
2017-08-18T21:37:37.077Z,17.00
2017-08-18T21:40:04.721Z,17.00
2017-08-18T21:42:32.333Z,17.03
2017-08-18T21:45:00.054Z,17.05
2017-08-18T21:47:27.726Z,17.07
2017-08-18T21:49:55.512Z,17.08
2017-08-18T21:52:23.123Z,17.16
2017-08-18T21:54:50.843Z,17.04
2017-08-18T21:57:18.479Z,17.02
2017-08-18T21:59:46.088Z,16.99
2017-08-18T22:02:13.705Z,16.94
2017-08-18T22:04:41.309Z,16.94
2017-08-18T22:07:08.960Z,16.92
2017-08-18T22:09:36.571Z,16.94
2017-08-18T22:12:04.215Z,16.88
2017-08-18T22:14:31.795Z,16.88
2017-08-18T22:16:59.445Z,16.78
2017-08-18T22:19:27.042Z,16.75
2017-08-18T22:21:54.718Z,16.78
2017-08-18T22:24:22.315Z,16.77
2017-08-18T22:26:49.970Z,16.81
2017-08-18T22:29:17.591Z,16.82
2017-08-18T22:31:45.226Z,16.81
2017-08-18T22:34:12.814Z,16.81
2017-08-18T22:36:40.450Z,16.76
2017-08-18T22:39:08.049Z,16.71
2017-08-18T22:41:35.667Z,16.66
2017-08-18T22:44:03.278Z,16.69
2017-08-18T22:46:30.995Z,16.63
2017-08-18T22:48:58.618Z,16.60
2017-08-18T22:51:26.286Z,16.66
2017-08-18T22:53:53.866Z,16.62
2017-08-18T22:56:21.527Z,16.62
2017-08-18T22:58:49.127Z,16.66
2017-08-18T23:01:16.784Z,16.63
2017-08-18T23:03:44.382Z,16.59
2017-08-18T23:06:12.006Z,16.51
2017-08-18T23:08:39.590Z,16.53
2017-08-18T23:11:07.263Z,16.56
2017-08-18T23:13:34.884Z,16.54
2017-08-18T23:16:02.525Z,16.54
2017-08-18T23:18:30.128Z,16.46
2017-08-18T23:20:57.722Z,16.38
2017-08-18T23:23:25.438Z,16.37
2017-08-18T23:25:53.044Z,16.35
2017-08-18T23:28:20.770Z,16.34
2017-08-18T23:30:48.387Z,16.27
2017-08-18T23:33:16.054Z,16.14
2017-08-18T23:35:43.670Z,16.14
2017-08-18T23:38:11.306Z,16.18
2017-08-18T23:40:38.915Z,16.18
2017-08-18T23:43:06.554Z,16.09
2017-08-18T23:45:34.149Z,16.10
2017-08-18T23:48:01.798Z,16.09
2017-08-18T23:50:29.401Z,16.05
2017-08-18T23:52:57.015Z,16.10
2017-08-18T23:55:24.642Z,16.14
2017-08-18T23:57:52.283Z,16.11
